ADDS METAR Data INFO
IDs: Format: Raw Decoded Include TAF

Data at: 1611 UTC 14 Aug 2018

KEQA 141555Z AUTO 26005KT 7SM -RA SCT009 BKN013 OVC021 23/22 A2992 RMK AO2
KEQA 141535Z AUTO 14003KT 3SM +RA SCT009 BKN039 OVC065 23/22 A2991 RMK AO2
KEQA 141515Z AUTO 16004KT 10SM BKN013 BKN021 OVC060 23/21 A2991 RMK AO2
KEQA 141455Z AUTO 18003KT 10SM SCT006 BKN013 OVC019 23/21 A2992 RMK AO2
KEQA 141435Z AUTO 20005KT 7SM BKN008 BKN011 OVC055 23/22 A2991 RMK AO2
KEQA 141415Z AUTO 21006KT 7SM BKN006 OVC060 23/22 A2991 RMK AO2
KEQA 141355Z AUTO 19008KT 7SM OVC006 23/22 A2991 RMK AO2
KEQA 141335Z AUTO 20007KT 5SM BR BKN006 OVC011 23/22 A2991 RMK AO2
KEQA 141315Z AUTO 19006KT 5SM BR SCT006 OVC009 22/21 A2991 RMK AO2
KEQA 141255Z AUTO 19005KT 5SM BR OVC011 22/21 A2992 RMK AO2
KEQA 141235Z AUTO 20005KT 5SM BR OVC013 22/21 A2992 RMK AO2
KEQA 141215Z AUTO 20003KT 4SM BR SCT013 BKN080 OVC090 22/21 A2992 RMK AO2
KEQA 141155Z AUTO 19004KT 4SM BR SCT004 BKN090 21/21 A2992 RMK AO2
KEQA 141135Z AUTO 19003KT 7SM OVC004 22/21 A2991 RMK AO2
KEQA 141115Z AUTO 19004KT 7SM OVC004 22/21 A2990 RMK AO2
KEQA 141055Z AUTO 19005KT 7SM OVC006 22/21 A2990 RMK AO2
KEQA 141035Z AUTO 20007KT 10SM OVC004 22/21 A2991 RMK AO2
KEQA 141015Z AUTO 18006KT 10SM OVC004 22/21 A2990 RMK AO2
KEQA 140955Z AUTO 19005KT 10SM OVC004 22/21 A2990 RMK AO2
KEQA 140935Z AUTO 16005KT 10SM OVC004 22/21 A2990 RMK AO2
KEQA 140915Z AUTO 19005KT 10SM OVC004 22/21 A2991 RMK AO2
KEQA 140855Z AUTO 16004KT 10SM OVC006 22/21 A2991 RMK AO2
KEQA 140835Z AUTO 18005KT 10SM OVC006 22/21 A2991 RMK AO2
KEQA 140815Z AUTO 17005KT 10SM OVC006 22/21 A2992 RMK AO2
KEQA 140755Z AUTO 16005KT 10SM OVC006 22/21 A2992 RMK AO2
KEQA 140735Z AUTO 16006KT 10SM BKN004 BKN017 OVC027 22/21 A2992 RMK AO2
KEQA 140715Z AUTO 15007KT 10SM SCT004 BKN028 OVC075 22/21 A2992 RMK AO2
KEQA 140655Z AUTO 16007KT 10SM BKN004 OVC008 22/21 A2993 RMK AO2
KEQA 140635Z AUTO 17003KT 7SM OVC006 22/21 A2994 RMK AO2
KEQA 140615Z AUTO 00000KT 10SM RA BKN008 OVC012 22/21 A2994 RMK AO2
KEQA 140555Z AUTO 00000KT 10SM -RA BKN010 BKN016 OVC029 22/21 A2995 RMK AO2
KEQA 140535Z AUTO 00000KT 10SM SCT006 BKN016 OVC041 22/21 A2995 RMK AO2
KEQA 140515Z AUTO 00000KT 10SM BKN006 OVC020 22/21 A2995 RMK AO2
KEQA 140455Z AUTO 00000KT 5SM RA OVC006 22/21 A2996 RMK AO2
KEQA 140435Z AUTO 00000KT 10SM OVC006 22/21 A2996 RMK AO2
KEQA 140415Z AUTO 00000KT 10SM OVC006 22/21 A2996 RMK AO2
KEQA 140355Z AUTO 00000KT 10SM -RA OVC006 22/21 A2996 RMK AO2
KEQA 140335Z AUTO 00000KT 10SM OVC006 22/21 A2996 RMK AO2
KEQA 140315Z AUTO 00000KT 10SM SCT008 BKN036 OVC110 21/20 A2996 RMK AO2
KEQA 140255Z AUTO 16003KT 10SM DZ SCT008 BKN041 OVC095 21/20 A2996 RMK AO2
KEQA 140235Z AUTO 17005KT 10SM -RA BKN006 BKN027 OVC065 21/20 A2997 RMK AO2
KEQA 140215Z AUTO 18007KT 7SM RA BKN010 BKN017 OVC041 22/20 A2996 RMK AO2
KEQA 140155Z AUTO 02004KT 10SM SCT012 BKN018 OVC035 22/21 A2995 RMK AO2
KEQA 140135Z AUTO 01003KT 7SM -RA BKN022 BKN035 OVC085 22/21 A2996 RMK AO2
KEQA 140115Z AUTO 17003KT 1 1/4SM +RA SCT004 BKN021 OVC028 22/21 A2996 RMK AO2
KEQA 140055Z AUTO 00000KT 10SM SCT023 BKN029 BKN070 23/22 A2995 RMK AO2
KEQA 140035Z AUTO 00000KT 10SM BKN024 BKN031 BKN038 23/22 A2996 RMK AO2
KEQA 140015Z AUTO 32003KT 10SM BKN020 BKN029 BKN065 23/21 A2996 RMK AO2
KEQA 132355Z AUTO 00000KT 10SM SCT016 BKN022 OVC060 23/21 A2996 RMK AO2
KEQA 132335Z AUTO 00000KT 10SM SCT007 BKN024 OVC032 23/21 A2996 RMK AO2
KEQA 132315Z AUTO 28009KT 3/4SM +RA BKN005 BKN013 OVC018 23/21 A2995 RMK AO2
KEQA 132255Z AUTO 08003KT 10SM SCT024 SCT029 25/22 A2995 RMK AO2
KEQA 132235Z AUTO 10004KT 10SM SCT055 SCT065 SCT075 25/21 A2996 RMK AO2
KEQA 132215Z AUTO 12005KT 10SM -RA SCT038 SCT050 BKN070 25/22 A2996 RMK AO2
KEQA 132155Z AUTO 12006KT 10SM -RA SCT055 BKN070 BKN080 25/22 A2996 RMK AO2
KEQA 132135Z AUTO 12007KT 10SM -DZ SCT013 SCT047 BKN110 25/21 A2996 RMK AO2
KEQA 132115Z AUTO 12011KT 10SM SCT013 BKN047 BKN060 26/22 A2997 RMK AO2
KEQA 132055Z AUTO 14008KT 10SM -RA SCT013 SCT029 SCT043 26/23 A2997 RMK AO2
KEQA 132035Z AUTO 15009KT 10SM SCT031 SCT040 SCT047 26/22 A2996 RMK AO2
KEQA 132015Z AUTO 18008KT 10SM -RA SCT031 BKN049 OVC075 24/22 A2998 RMK AO2
KEQA 131955Z AUTO 19008KT 10SM RA SCT032 BKN049 OVC080 23/21 A2999 RMK AO2
KEQA 131935Z AUTO 20011G15KT 10SM -RA SCT018 BKN036 OVC110 23/21 A3001 RMK AO2
KEQA 131915Z AUTO 17009G14KT 10SM -DZ SCT021 BKN110 26/22 A3000 RMK AO2
KEQA 131855Z AUTO 16012KT 10SM SCT023 SCT055 BKN110 27/21 A3000 RMK AO2
KEQA 131835Z AUTO 16012KT 10SM SCT023 BKN029 BKN038 27/21 A2999 RMK AO2
KEQA 131815Z AUTO 18013KT 10SM BKN023 BKN029 BKN035 28/22 A3000 RMK AO2
KEQA 131755Z AUTO 16012KT 10SM BKN021 BKN027 OVC032 28/22 A3001 RMK AO2
KEQA 131735Z AUTO 14013KT 10SM BKN020 BKN027 OVC080 28/21 A3001 RMK AO2
KEQA 131715Z AUTO 14012KT 10SM BKN020 BKN027 OVC055 28/22 A3002 RMK AO2
KEQA 131655Z AUTO 16007KT 10SM BKN020 BKN027 BKN033 27/22 A3003 RMK AO2
KEQA 131635Z AUTO 16007KT 10SM BKN016 BKN033 27/22 A3003 RMK AO2
KEQA 131615Z AUTO 13008KT 10SM OVC014 27/22 A3004 RMK AO2
KEQA 131555Z AUTO 13007KT 10SM OVC010 26/22 A3004 RMK AO2
KEQA 131535Z AUTO 16008KT 10SM OVC010 26/22 A3003 RMK AO2
KEQA 131515Z AUTO 16008KT 10SM OVC008 25/22 A3003 RMK AO2
KEQA 131455Z AUTO 15008KT 10SM OVC008 25/22 A3003 RMK AO2
KEQA 131435Z AUTO 17008KT 10SM OVC008 24/22 A3004 RMK AO2
KEQA 131415Z AUTO 15008KT 10SM OVC006 24/22 A3004 RMK AO2
KEQA 131355Z AUTO 15008KT 10SM BKN006 OVC012 24/22 A3004 RMK AO2
KEQA 131335Z AUTO 15007KT 7SM -RA BKN008 OVC012 23/22 A3005 RMK AO2
KEQA 131315Z AUTO 15006KT 10SM -RA OVC010 23/22 A3005 RMK AO2
KEQA 131255Z AUTO 15009KT 10SM OVC010 23/22 A3005 RMK AO2
KEQA 131235Z AUTO 14007KT 10SM BKN012 BKN017 OVC035 23/21 A3005 RMK AO2
KEQA 131215Z AUTO 14007KT 10SM OVC035 23/21 A3005 RMK AO2
KEQA 131155Z AUTO 14007KT 10SM BKN037 23/21 A3004 RMK AO2
KEQA 131135Z AUTO 14006KT 10SM SCT037 23/21 A3004 RMK AO2
KEQA 131115Z AUTO 14006KT 10SM CLR 23/21 A3004 RMK AO2
KEQA 131055Z AUTO 13006KT 10SM CLR 22/21 A3004 RMK AO2
KEQA 131035Z AUTO 13005KT 10SM CLR 22/21 A3004 RMK AO2
KEQA 131015Z AUTO 12004KT 10SM CLR 22/20 A3004 RMK AO2
KEQA 130955Z AUTO 13004KT 10SM CLR 22/20 A3005 RMK AO2
KEQA 130935Z AUTO 12003KT 10SM CLR 22/20 A3005 RMK AO2
KEQA 130915Z AUTO 00000KT 10SM CLR 22/20 A3005 RMK AO2
KEQA 130855Z AUTO 00000KT 10SM CLR 22/20 A3005 RMK AO2
KEQA 130835Z AUTO 15003KT 10SM CLR 22/20 A3005 RMK AO2
KEQA 130815Z AUTO 15003KT 10SM CLR 22/20 A3005 RMK AO2
KEQA 130755Z AUTO 00000KT 10SM CLR 22/20 A3005 RMK AO2
KEQA 130735Z AUTO 00000KT 10SM CLR 22/20 A3005 RMK AO2
KEQA 130715Z AUTO 19003KT 10SM CLR 22/20 A3006 RMK AO2
KEQA 130655Z AUTO 00000KT 10SM CLR 22/20 A3006 RMK AO2
KEQA 130635Z AUTO 17003KT 10SM CLR 22/20 A3006 RMK AO2
KEQA 130615Z AUTO 16005KT 10SM CLR 22/20 A3006 RMK AO2
KEQA 130555Z AUTO 15005KT 10SM CLR 23/20 A3006 RMK AO2
KEQA 130535Z AUTO 14006KT 10SM CLR 23/20 A3005 RMK AO2
KEQA 130515Z AUTO 16005KT 10SM CLR 23/20 A3005 RMK AO2
KEQA 130455Z AUTO 15006KT 10SM CLR 23/20 A3005 RMK AO2
KEQA 130435Z AUTO 16005KT 10SM CLR 23/20 A3005 RMK AO2
KEQA 130415Z AUTO 15004KT 10SM CLR 23/20 A3004 RMK AO2